KBOK

Brookings Airport

Brookings, Oregon, USA
METAR KBOK 190608Z AUTO 15013G24KT 3SM RA BR OVC002 12/11 A3015 RMK AO2 P0006
Observed Flight Rules
Jan-19 @ 06:08 UTC (38 minutes ago) Instrument Flight Rules
Wind Visibility Clouds Conditions
150° at 13 knots
 Gusting to 24 knots
3 miles
  • Overcast at 200' AGL
  • Rain
  • Mist
Temperatures Readings Precipitation
Current 12°C / 54°F
Dewpoint 11°C / 52°F
Humidity 94%
Altimeter 30.15" Hg
Pressure 1021.02 hPa
Elevation 140
Current Rain 0.06
METAR KBOK 190608Z AUTO 15013G24KT 3SM RA BR OVC002 12/11 A3015 RMK AO2 P0006
Observed Flight Rules
Jan-19 @ 06:08 UTC
(38 minutes ago)
LIFR
Wind Visibility
150° at 13 knots
 Gusting to 24 knots
3 miles
Clouds
  • Overcast at 200' AGL
Conditions
  • Rain
  • Mist
Temperature Dewpoint
12°C / 54°F 11°C / 52°F
Humidity Altimeter Pressure
94% 30.15" Hg 1021.02 hPa
Current Rain
0.06